createdAt,value
2022-11-05T00:03:13.454Z,55.50
2022-11-05T00:10:04.794Z,55.65
2022-11-05T00:16:52.766Z,55.24
2022-11-05T00:23:50.679Z,55.43
2022-11-05T00:30:36.087Z,55.41
2022-11-05T00:37:24.079Z,55.35
2022-11-05T00:44:21.927Z,55.65
2022-11-05T00:51:07.579Z,55.61
2022-11-05T00:57:55.740Z,55.36
2022-11-05T01:04:41.097Z,55.62
2022-11-05T01:18:51.573Z,55.69
2022-11-05T01:25:36.951Z,55.75
2022-11-05T01:32:22.306Z,55.62
2022-11-05T01:39:10.302Z,55.48
2022-11-05T01:45:59.690Z,55.49
2022-11-05T01:52:45.245Z,55.51
2022-11-05T01:59:39.098Z,55.70
2022-11-05T02:06:25.353Z,55.87
2022-11-05T02:13:11.116Z,55.47
2022-11-05T02:20:35.477Z,55.99
2022-11-05T02:27:33.836Z,55.85
2022-11-05T02:34:31.526Z,55.69
2022-11-05T02:41:27.272Z,55.65
2022-11-05T02:48:23.996Z,55.96
2022-11-05T02:55:22.470Z,56.06
2022-11-05T03:02:09.473Z,55.96
2022-11-05T03:09:15.217Z,55.92
2022-11-05T03:16:09.314Z,56.18
2022-11-05T03:23:03.830Z,56.03
2022-11-05T03:29:54.970Z,56.04
2022-11-05T03:36:49.180Z,56.08
2022-11-05T03:43:40.024Z,56.19
2022-11-05T04:04:15.690Z,56.08
2022-11-05T04:11:13.644Z,56.12
2022-11-05T04:18:00.135Z,56.31
2022-11-05T04:24:49.236Z,56.01
2022-11-05T04:31:34.564Z,55.95
2022-11-05T04:38:22.234Z,56.25
2022-11-05T04:45:10.870Z,56.16
2022-11-05T04:51:56.237Z,56.17
2022-11-05T04:58:45.618Z,56.23
2022-11-05T05:05:33.743Z,55.93
2022-11-05T05:12:19.207Z,55.92
2022-11-05T05:19:04.567Z,55.71
2022-11-05T05:25:52.671Z,55.85
2022-11-05T05:32:38.030Z,55.76
2022-11-05T05:39:23.368Z,55.50
2022-11-05T05:46:15.066Z,55.87
2022-11-05T05:53:00.828Z,55.73
2022-11-05T05:59:46.143Z,55.47
2022-11-05T06:06:34.564Z,55.40
2022-11-05T06:13:19.940Z,55.58
2022-11-05T06:20:05.395Z,55.32
2022-11-05T06:26:53.608Z,55.06
2022-11-05T06:33:39.096Z,55.21
2022-11-05T06:40:24.435Z,55.23
2022-11-05T06:47:12.372Z,55.28
2022-11-05T06:53:58.533Z,55.28
2022-11-05T07:00:44.274Z,55.43
2022-11-05T07:07:32.539Z,55.39
2022-11-05T07:14:17.838Z,55.48
2022-11-05T07:21:03.163Z,55.18
2022-11-05T07:27:51.084Z,55.40
2022-11-05T07:34:36.495Z,55.29
2022-11-05T07:41:21.894Z,55.47
2022-11-05T07:48:10.589Z,55.67
2022-11-05T07:54:55.920Z,55.59
2022-11-05T08:01:41.464Z,55.34
2022-11-05T08:08:29.800Z,55.61
2022-11-05T08:15:15.149Z,55.57
2022-11-05T08:22:00.463Z,55.87
2022-11-05T08:28:48.673Z,55.97
2022-11-05T08:35:34.401Z,56.02
2022-11-05T08:42:19.805Z,56.25
2022-11-05T08:49:08.159Z,56.18
2022-11-05T08:55:53.523Z,56.24
2022-11-05T09:02:38.989Z,56.02
2022-11-05T09:09:26.945Z,56.45
2022-11-05T09:16:22.232Z,56.12
2022-11-05T09:23:07.745Z,56.09
2022-11-05T09:29:55.831Z,56.19
2022-11-05T09:36:41.380Z,55.53
2022-11-05T09:43:36.769Z,56.01
2022-11-05T09:50:35.658Z,55.59
2022-11-05T09:57:26.423Z,54.71
2022-11-05T10:04:22.535Z,54.39
2022-11-05T10:11:16.558Z,54.36
2022-11-05T10:18:07.916Z,54.49
2022-11-05T10:24:55.099Z,54.00
2022-11-05T10:31:43.772Z,53.64
2022-11-05T10:38:29.251Z,53.96
2022-11-05T10:45:30.435Z,54.35
2022-11-05T10:52:25.675Z,53.95
2022-11-05T10:59:26.497Z,53.83
2022-11-05T11:06:24.807Z,53.68
2022-11-05T11:13:23.714Z,53.67
2022-11-05T11:20:25.356Z,53.09
2022-11-05T11:27:16.615Z,52.58
2022-11-05T11:34:10.059Z,52.59
2022-11-05T11:41:08.914Z,52.77
2022-11-05T11:47:54.502Z,52.43
2022-11-05T11:54:43.158Z,52.31
2022-11-05T12:02:16.225Z,52.40
2022-11-05T12:09:11.014Z,52.06
2022-11-05T12:16:03.204Z,52.44
2022-11-05T12:23:14.984Z,52.47
2022-11-05T12:30:07.930Z,52.43
2022-11-05T12:37:27.260Z,52.45
2022-11-05T12:44:31.775Z,52.09
2022-11-05T12:51:41.428Z,52.04
2022-11-05T12:58:35.670Z,51.45
2022-11-05T13:05:28.874Z,51.81
2022-11-05T13:12:17.493Z,51.39
2022-11-05T13:19:16.164Z,51.84
2022-11-05T13:26:19.507Z,51.13
2022-11-05T13:33:09.106Z,51.53
2022-11-05T13:40:04.594Z,51.24
2022-11-05T13:47:20.618Z,51.69
2022-11-05T13:54:41.136Z,51.55
2022-11-05T14:01:52.854Z,51.46
2022-11-05T14:08:45.831Z,51.74
2022-11-05T14:15:33.375Z,52.09
2022-11-05T14:22:43.992Z,52.14
2022-11-05T14:29:41.798Z,52.71
2022-11-05T14:36:40.013Z,52.32
2022-11-05T14:43:30.824Z,52.16
2022-11-05T14:50:24.257Z,52.38
2022-11-05T14:57:09.769Z,52.64
2022-11-05T15:04:21.163Z,52.43
2022-11-05T15:11:16.425Z,52.28
2022-11-05T15:18:08.960Z,52.04
2022-11-05T15:24:57.795Z,51.86
2022-11-05T15:31:45.386Z,51.72
2022-11-05T15:38:36.722Z,51.91
2022-11-05T15:45:27.779Z,51.48
2022-11-05T15:52:16.715Z,51.48
2022-11-05T15:59:05.061Z,51.58
2022-11-05T16:05:53.806Z,51.51
2022-11-05T16:12:40.351Z,51.30
2022-11-05T16:19:40.965Z,51.57
2022-11-05T16:27:01.401Z,51.61
2022-11-05T16:33:48.123Z,51.61
2022-11-05T16:40:33.540Z,51.09
2022-11-05T16:47:22.395Z,51.52
2022-11-05T16:54:08.170Z,51.55
2022-11-05T17:01:08.089Z,51.70
2022-11-05T17:07:57.200Z,51.90
2022-11-05T17:14:43.069Z,51.57
2022-11-05T17:21:28.851Z,51.90
2022-11-05T17:28:18.696Z,51.50
2022-11-05T17:35:04.121Z,51.57
2022-11-05T17:41:50.060Z,51.58
2022-11-05T17:48:38.533Z,52.12
2022-11-05T17:55:23.995Z,52.45
2022-11-05T18:02:09.516Z,52.84
2022-11-05T18:08:58.032Z,52.77
2022-11-05T18:15:43.800Z,52.69
2022-11-05T18:22:29.644Z,52.92
2022-11-05T18:29:17.850Z,52.81
2022-11-05T18:36:03.361Z,52.99
2022-11-05T18:42:48.747Z,52.98
2022-11-05T18:49:36.769Z,52.98
2022-11-05T18:56:22.258Z,53.07
2022-11-05T19:03:08.727Z,52.82
2022-11-05T19:09:56.891Z,52.83
2022-11-05T19:16:42.374Z,52.64
2022-11-05T19:23:28.203Z,52.17
2022-11-05T19:30:16.859Z,52.47
2022-11-05T19:37:02.456Z,52.55
2022-11-05T19:43:48.256Z,52.82
2022-11-05T19:50:36.692Z,53.17
2022-11-05T19:57:22.341Z,53.49
2022-11-05T20:04:08.725Z,53.54
2022-11-05T20:10:59.920Z,53.70
2022-11-05T20:17:45.315Z,53.39
2022-11-05T20:24:30.751Z,53.53
2022-11-05T20:31:20.842Z,53.65
2022-11-05T20:38:06.246Z,53.50
2022-11-05T20:44:51.612Z,53.38
2022-11-05T20:51:39.639Z,53.51
2022-11-05T20:58:25.095Z,53.39
2022-11-05T21:05:11.706Z,53.44
2022-11-05T21:12:15.006Z,53.74
2022-11-05T21:19:00.356Z,54.14
2022-11-05T21:25:47.679Z,54.41
2022-11-05T21:32:35.544Z,53.73
2022-11-05T21:39:21.995Z,54.46
2022-11-05T21:46:08.275Z,54.67
2022-11-05T21:53:08.743Z,55.02
2022-11-05T21:59:56.472Z,55.26
2022-11-05T22:06:42.163Z,55.42
2022-11-05T22:13:30.146Z,55.83
2022-11-05T22:20:15.767Z,55.87
2022-11-05T22:27:02.291Z,56.04
2022-11-05T22:33:51.057Z,56.01
2022-11-05T22:40:36.402Z,56.08
2022-11-05T22:47:21.769Z,56.02
2022-11-05T22:54:11.099Z,56.25
2022-11-05T23:00:56.489Z,56.01
2022-11-05T23:07:54.680Z,56.26
2022-11-05T23:14:42.642Z,56.33
2022-11-05T23:21:40.732Z,56.29
2022-11-05T23:28:26.103Z,56.49
2022-11-05T23:35:15.044Z,56.60
2022-11-05T23:42:27.858Z,56.66
2022-11-05T23:49:13.261Z,56.72
2022-11-05T23:56:07.547Z,56.86
